createdAt,value
2023-05-05T00:00:32.823Z,13.12
2023-05-05T00:05:35.511Z,13.25
2023-05-05T00:10:39.582Z,13.30
2023-05-05T00:15:42.987Z,13.24
2023-05-05T00:20:47.044Z,13.20
2023-05-05T00:25:51.086Z,13.09
2023-05-05T00:30:53.786Z,12.94
2023-05-05T00:35:56.522Z,12.78
2023-05-05T00:41:00.573Z,12.85
2023-05-05T00:46:10.605Z,12.98
2023-05-05T00:51:14.748Z,13.07
2023-05-05T00:56:20.887Z,13.07
2023-05-05T01:01:24.063Z,13.01
2023-05-05T01:06:42.413Z,12.91
2023-05-05T01:11:52.688Z,12.83
2023-05-05T01:17:00.036Z,12.78
2023-05-05T01:22:08.210Z,12.68
2023-05-05T01:27:45.941Z,12.50
2023-05-05T01:32:55.153Z,12.33
2023-05-05T01:38:04.652Z,12.30
2023-05-05T01:43:09.912Z,12.38
2023-05-05T01:48:17.926Z,12.51
2023-05-05T01:53:22.209Z,12.59
2023-05-05T01:58:27.887Z,12.61
2023-05-05T02:03:34.349Z,12.64
2023-05-05T02:08:38.942Z,12.63
2023-05-05T02:13:44.020Z,12.59
2023-05-05T02:18:49.429Z,12.55
2023-05-05T02:23:52.193Z,12.48
2023-05-05T02:29:03.342Z,12.47
2023-05-05T02:34:09.036Z,12.43
2023-05-05T02:39:16.327Z,12.43
2023-05-05T02:44:20.881Z,12.46
2023-05-05T02:49:25.340Z,12.50
2023-05-05T02:54:28.793Z,12.61
2023-05-05T02:59:39.249Z,12.70
2023-05-05T03:04:46.814Z,12.71
2023-05-05T03:09:56.765Z,12.72
2023-05-05T03:15:01.763Z,12.68
2023-05-05T03:20:06.943Z,12.45
2023-05-05T03:25:10.288Z,12.17
2023-05-05T03:30:13.988Z,11.86
2023-05-05T03:35:18.011Z,11.59
2023-05-05T03:40:23.490Z,11.37
2023-05-05T03:45:29.924Z,11.23
2023-05-05T03:50:33.987Z,11.17
2023-05-05T03:55:36.956Z,11.19
2023-05-05T04:00:39.583Z,11.26
2023-05-05T04:05:43.521Z,11.35
2023-05-05T04:10:46.618Z,11.42
2023-05-05T04:15:49.297Z,11.46
2023-05-05T04:20:53.348Z,11.62
2023-05-05T04:25:56.020Z,11.72
2023-05-05T04:30:59.387Z,11.78
2023-05-05T04:36:03.260Z,11.84
2023-05-05T04:41:07.218Z,11.91
2023-05-05T04:46:09.975Z,11.99
2023-05-05T04:51:14.062Z,12.10
2023-05-05T04:56:16.894Z,12.22
2023-05-05T05:01:19.560Z,12.39
2023-05-05T05:06:23.768Z,12.55
2023-05-05T05:11:26.477Z,12.71
2023-05-05T05:16:29.213Z,12.84
2023-05-05T05:21:33.202Z,12.98
2023-05-05T05:26:35.867Z,13.09
2023-05-05T05:31:39.770Z,13.35
2023-05-05T05:36:43.758Z,13.60
2023-05-05T05:41:46.452Z,13.78
2023-05-05T05:46:49.195Z,13.99
2023-05-05T05:51:53.204Z,14.22
2023-05-05T05:56:55.892Z,14.39
2023-05-05T06:01:58.570Z,14.52
2023-05-05T06:07:02.506Z,14.53
2023-05-05T06:12:05.270Z,14.77
2023-05-05T06:17:07.895Z,16.36
2023-05-05T06:22:11.854Z,19.14
2023-05-05T06:27:14.569Z,20.50
2023-05-05T06:32:17.294Z,20.81
2023-05-05T06:37:21.331Z,22.01
2023-05-05T06:42:24.097Z,22.43
2023-05-05T06:47:26.974Z,22.68
2023-05-05T06:52:30.996Z,23.05
2023-05-05T06:57:33.693Z,23.12
2023-05-05T07:02:36.385Z,23.18
2023-05-05T07:07:42.282Z,23.18
2023-05-05T07:12:45.027Z,23.76
2023-05-05T07:17:47.894Z,23.51
2023-05-05T07:22:52.050Z,24.23
2023-05-05T07:27:54.837Z,24.38
2023-05-05T07:32:57.779Z,24.61
2023-05-05T07:38:02.216Z,24.79
2023-05-05T07:43:04.914Z,24.94
2023-05-05T07:48:07.503Z,24.33
2023-05-05T07:53:14.811Z,24.93
2023-05-05T07:58:18.201Z,25.23
2023-05-05T08:03:24.287Z,25.59
2023-05-05T08:08:28.674Z,25.51
2023-05-05T08:13:31.362Z,25.52
2023-05-05T08:18:37.426Z,26.15
2023-05-05T08:23:42.444Z,26.05
2023-05-05T08:28:45.117Z,26.07
2023-05-05T08:33:47.732Z,26.00
2023-05-05T08:38:52.172Z,26.71
2023-05-05T08:43:54.870Z,27.31
2023-05-05T08:48:58.740Z,27.32
2023-05-05T08:54:05.259Z,27.17
2023-05-05T08:59:09.381Z,27.15
2023-05-05T09:04:12.035Z,27.51
2023-05-05T09:09:16.273Z,27.39
2023-05-05T09:14:18.927Z,27.70
2023-05-05T09:19:21.563Z,28.26
2023-05-05T09:24:25.521Z,28.60
2023-05-05T09:29:28.275Z,27.75
2023-05-05T09:34:33.527Z,25.29
2023-05-05T09:39:37.492Z,24.18
2023-05-05T09:44:41.096Z,23.19
2023-05-05T09:49:43.815Z,24.52
2023-05-05T09:54:55.058Z,26.58
2023-05-05T09:59:58.746Z,27.01
2023-05-05T10:05:10.835Z,28.02
2023-05-05T10:10:16.690Z,26.46
2023-05-05T10:15:19.870Z,26.04
2023-05-05T10:20:23.996Z,24.37
2023-05-05T10:25:31.493Z,23.21
2023-05-05T10:30:41.913Z,22.14
2023-05-05T10:35:47.290Z,21.01
2023-05-05T10:40:51.519Z,20.04
2023-05-05T10:45:55.255Z,18.98
2023-05-05T10:51:07.156Z,18.52
2023-05-05T10:56:16.407Z,17.64
2023-05-05T11:01:33.814Z,16.86
2023-05-05T11:06:36.661Z,16.79
2023-05-05T11:12:06.800Z,17.13
2023-05-05T11:17:46.600Z,17.94
2023-05-05T11:23:23.706Z,18.52
2023-05-05T11:28:30.964Z,19.22
2023-05-05T11:33:36.023Z,19.71
2023-05-05T11:39:05.350Z,20.14
2023-05-05T11:44:13.582Z,20.26
2023-05-05T11:49:27.440Z,21.06
2023-05-05T11:54:31.059Z,21.90
2023-05-05T11:59:37.226Z,22.57
2023-05-05T12:04:40.960Z,23.45
2023-05-05T12:14:51.812Z,23.45
2023-05-05T12:19:55.664Z,23.24
2023-05-05T12:25:01.016Z,22.50
2023-05-05T12:30:16.993Z,21.41
2023-05-05T12:35:19.843Z,17.92
2023-05-05T12:40:40.952Z,15.61
2023-05-05T12:45:44.991Z,14.48
2023-05-05T12:50:47.709Z,13.12
2023-05-05T12:55:51.268Z,12.77
2023-05-05T13:01:10.458Z,12.54
2023-05-05T13:06:24.563Z,12.47
2023-05-05T13:11:27.324Z,12.52
2023-05-05T13:16:31.499Z,12.45
2023-05-05T13:21:34.183Z,12.52
2023-05-05T13:26:36.887Z,12.52
2023-05-05T13:31:41.633Z,12.49
2023-05-05T13:36:44.492Z,12.53
2023-05-05T13:41:47.203Z,12.70
2023-05-05T13:46:51.819Z,12.78
2023-05-05T13:51:55.170Z,12.89
2023-05-05T13:56:58.108Z,13.06
2023-05-05T14:02:02.030Z,13.16
2023-05-05T14:07:04.830Z,13.37
2023-05-05T14:12:07.599Z,13.34
2023-05-05T14:17:12.778Z,13.16
2023-05-05T14:22:15.411Z,13.09
2023-05-05T14:27:18.002Z,13.03
2023-05-05T14:32:23.045Z,13.10
2023-05-05T14:37:25.781Z,13.20
2023-05-05T14:42:28.377Z,13.29
2023-05-05T14:47:32.401Z,13.43
2023-05-05T14:52:36.529Z,13.71
2023-05-05T14:57:39.252Z,13.99
2023-05-05T15:02:43.428Z,14.16
2023-05-05T15:07:46.160Z,14.28
2023-05-05T15:12:49.465Z,14.52
2023-05-05T15:17:53.585Z,14.86
2023-05-05T15:22:56.406Z,15.07
2023-05-05T15:28:00.944Z,15.65
2023-05-05T15:33:05.008Z,16.11
2023-05-05T15:38:07.792Z,17.68
2023-05-05T15:43:10.660Z,17.75
2023-05-05T15:48:14.696Z,18.30
2023-05-05T15:53:17.509Z,17.72
2023-05-05T15:58:20.443Z,16.91
2023-05-05T16:03:24.390Z,17.13
2023-05-05T16:08:27.054Z,17.45
2023-05-05T16:13:29.832Z,17.75
2023-05-05T16:18:33.846Z,18.50
2023-05-05T16:23:36.559Z,19.64
2023-05-05T16:28:39.303Z,20.29
2023-05-05T16:33:43.766Z,19.49
2023-05-05T16:38:46.475Z,19.34
2023-05-05T16:43:48.962Z,20.03
2023-05-05T16:48:54.058Z,19.68
2023-05-05T16:53:57.103Z,19.60
2023-05-05T16:58:59.776Z,19.64
2023-05-05T17:04:03.759Z,20.02
2023-05-05T17:09:06.727Z,19.36
2023-05-05T17:14:09.358Z,18.85
2023-05-05T17:19:13.344Z,17.86
2023-05-05T17:24:16.003Z,17.83
2023-05-05T17:29:19.861Z,18.32
2023-05-05T17:34:23.677Z,17.68
2023-05-05T17:39:26.313Z,16.72
2023-05-05T17:44:28.930Z,16.27
2023-05-05T17:49:32.825Z,15.86
2023-05-05T17:54:35.485Z,15.51
2023-05-05T17:59:38.174Z,15.24
2023-05-05T18:04:42.556Z,15.01
2023-05-05T18:09:45.264Z,14.78
2023-05-05T18:14:47.886Z,14.57
2023-05-05T18:19:51.860Z,14.45
2023-05-05T18:24:58.907Z,14.26
2023-05-05T18:30:01.743Z,14.03
2023-05-05T18:35:06.514Z,13.79
2023-05-05T18:40:10.955Z,13.57
2023-05-05T18:45:13.952Z,13.32
2023-05-05T18:50:18.981Z,13.11
2023-05-05T18:55:22.107Z,12.93
2023-05-05T19:00:25.098Z,12.73
2023-05-05T19:05:29.233Z,12.51
2023-05-05T19:10:31.830Z,12.26
2023-05-05T19:15:34.497Z,11.98
2023-05-05T19:20:42.780Z,11.78
2023-05-05T19:25:45.507Z,11.62
2023-05-05T19:30:48.713Z,11.57
2023-05-05T19:35:52.717Z,11.41
2023-05-05T19:40:55.328Z,11.18
2023-05-05T19:45:57.893Z,11.00
2023-05-05T19:51:01.982Z,10.88
2023-05-05T19:56:05.758Z,10.77
2023-05-05T20:01:08.435Z,10.67
2023-05-05T20:06:12.448Z,10.77
2023-05-05T20:11:15.396Z,10.70
2023-05-05T20:16:18.411Z,10.55
2023-05-05T20:21:23.508Z,10.45
2023-05-05T20:26:26.510Z,10.36
2023-05-05T20:31:29.290Z,10.20
2023-05-05T20:36:33.392Z,10.08
2023-05-05T20:41:37.957Z,9.95
2023-05-05T20:46:40.703Z,9.94
2023-05-05T20:51:44.653Z,9.97
2023-05-05T20:56:47.300Z,9.89
2023-05-05T21:01:49.954Z,9.76
2023-05-05T21:06:53.925Z,9.72
2023-05-05T21:11:56.589Z,9.68
2023-05-05T21:16:59.254Z,9.76
2023-05-05T21:22:03.208Z,9.80
2023-05-05T21:27:05.891Z,9.74
2023-05-05T21:32:09.731Z,9.78
2023-05-05T21:37:13.686Z,9.79
2023-05-05T21:42:16.406Z,9.81
2023-05-05T21:47:19.005Z,9.79
2023-05-05T21:52:24.001Z,9.63
2023-05-05T21:57:26.608Z,9.38
2023-05-05T22:02:29.275Z,9.19
2023-05-05T22:07:33.348Z,9.23
2023-05-05T22:12:36.010Z,9.18
2023-05-05T22:17:38.627Z,9.17
2023-05-05T22:22:42.662Z,9.31
2023-05-05T22:27:45.433Z,9.37
2023-05-05T22:32:48.167Z,9.41
2023-05-05T22:37:52.169Z,9.31
2023-05-05T22:42:54.777Z,9.05
2023-05-05T22:47:57.546Z,8.80
2023-05-05T22:53:01.597Z,8.68
2023-05-05T22:58:04.220Z,8.76
2023-05-05T23:03:06.993Z,8.70
2023-05-05T23:08:11.117Z,8.85
2023-05-05T23:13:13.873Z,8.75
2023-05-05T23:18:16.523Z,8.95
2023-05-05T23:23:20.597Z,9.14
2023-05-05T23:28:23.284Z,9.18
2023-05-05T23:33:25.943Z,9.18
2023-05-05T23:38:29.913Z,9.17
2023-05-05T23:43:32.519Z,9.13
2023-05-05T23:48:35.115Z,9.09
2023-05-05T23:53:39.042Z,9.04
2023-05-05T23:58:41.628Z,8.96
